DAL2225 KMSP-KMCO
Flight info
| Callsign | DAL2225 |
|---|---|
| Flight time | 2h 30m |
| Altitude | 33000 |
| Route | ZMBRO7 ODI J30 JOT BVT J89 IIU Q79 THRSR ZJAYX GRNCH5 |
| Aircraft | B753/M-VRDW/C |
Departure
| Time | 2026-05-06 00:32 |
|---|---|
| Airport | Minneapolis–Saint Paul International Airport / Wold–Chamberlain Field (KMSP) |
Arrival
| Time | 2026-05-06 03:03 |
|---|---|
| Airport | Orlando International Airport (KMCO) |
| Time | Latitude | Longitude | Altitude | Speed | Heading |
|---|---|---|---|---|---|
| 2026-05-06 00:00 | 44.88298 | -93.21449 | 847 ft | 0 kts | 19° |
| 2026-05-06 00:21 | 44.88289 | -93.21454 | 847 ft | 2 kts | 19° |
| 2026-05-06 00:22 | 44.88274 | -93.21461 | 847 ft | 2 kts | 19° |
| 2026-05-06 00:22 | 44.88260 | -93.21468 | 847 ft | 2 kts | 19° |
| 2026-05-06 00:22 | 44.88246 | -93.21474 | 847 ft | 2 kts | 19° |
| 2026-05-06 00:22 | 44.88232 | -93.21481 | 847 ft | 2 kts | 19° |
| 2026-05-06 00:23 | 44.88217 | -93.21488 | 847 ft | 2 kts | 19° |
| 2026-05-06 00:23 | 44.88203 | -93.21495 | 847 ft | 2 kts | 20° |
| 2026-05-06 00:23 | 44.88191 | -93.21506 | 847 ft | 2 kts | 54° |
| 2026-05-06 00:23 | 44.88185 | -93.21526 | 847 ft | 2 kts | 79° |
| 2026-05-06 00:24 | 44.88185 | -93.21546 | 847 ft | 2 kts | 106° |
| 2026-05-06 00:24 | 44.88191 | -93.21564 | 847 ft | 2 kts | 126° |
| 2026-05-06 00:24 | 44.88195 | -93.21573 | 847 ft | 0 kts | 124° |
| 2026-05-06 00:26 | 44.88195 | -93.21572 | 847 ft | 0 kts | 124° |
| 2026-05-06 00:27 | 44.88184 | -93.21549 | 847 ft | 7 kts | 126° |
| 2026-05-06 00:27 | 44.88134 | -93.21491 | 847 ft | 9 kts | 152° |
| 2026-05-06 00:27 | 44.88075 | -93.21450 | 847 ft | 9 kts | 152° |
| 2026-05-06 00:27 | 44.88012 | -93.21351 | 847 ft | 17 kts | 120° |
| 2026-05-06 00:28 | 44.87938 | -93.21177 | 847 ft | 21 kts | 121° |
| 2026-05-06 00:28 | 44.87861 | -93.20999 | 847 ft | 21 kts | 121° |
| 2026-05-06 00:28 | 44.87786 | -93.20825 | 847 ft | 20 kts | 121° |
| 2026-05-06 00:28 | 44.87716 | -93.20660 | 847 ft | 19 kts | 121° |
| 2026-05-06 00:29 | 44.87647 | -93.20505 | 847 ft | 18 kts | 122° |
| 2026-05-06 00:29 | 44.87582 | -93.20355 | 847 ft | 17 kts | 122° |
| 2026-05-06 00:29 | 44.87521 | -93.20215 | 847 ft | 16 kts | 121° |
| 2026-05-06 00:29 | 44.87477 | -93.20116 | 847 ft | 4 kts | 123° |
| 2026-05-06 00:30 | 44.87456 | -93.20083 | 847 ft | 5 kts | 149° |
| 2026-05-06 00:30 | 44.87415 | -93.20085 | 847 ft | 6 kts | 209° |
| 2026-05-06 00:30 | 44.87382 | -93.20119 | 847 ft | 5 kts | 216° |
| 2026-05-06 00:30 | 44.87365 | -93.20149 | 847 ft | 3 kts | 256° |
| 2026-05-06 00:31 | 44.87386 | -93.20209 | 847 ft | 13 kts | 305° |
| 2026-05-06 00:31 | 44.87527 | -93.20525 | 847 ft | 64 kts | 301° |
| 2026-05-06 00:31 | 44.87850 | -93.21270 | 847 ft | 112 kts | 301° |
| 2026-05-06 00:31 | 44.88330 | -93.22381 | 848 ft | 153 kts | 302° |
| 2026-05-06 00:32 | 44.88931 | -93.23760 | 1063 ft | 172 kts | 302° |
| 2026-05-06 00:32 | 44.89568 | -93.25232 | 1682 ft | 177 kts | 303° |
| 2026-05-06 00:32 | 44.90203 | -93.26676 | 2354 ft | 177 kts | 303° |
| 2026-05-06 00:32 | 44.90850 | -93.28184 | 2926 ft | 187 kts | 302° |
| 2026-05-06 00:33 | 44.91266 | -93.30065 | 3152 ft | 223 kts | 271° |
| 2026-05-06 00:33 | 44.90797 | -93.32286 | 3600 ft | 253 kts | 242° |
| 2026-05-06 00:33 | 44.89673 | -93.34257 | 4366 ft | 267 kts | 226° |
| 2026-05-06 00:33 | 44.88100 | -93.35765 | 5167 ft | 279 kts | 211° |
| 2026-05-06 00:34 | 44.86205 | -93.36498 | 6014 ft | 290 kts | 181° |
| 2026-05-06 00:34 | 44.84257 | -93.35891 | 6982 ft | 294 kts | 154° |
| 2026-05-06 00:34 | 44.82620 | -93.34158 | 7819 ft | 300 kts | 131° |
| 2026-05-06 00:34 | 44.81349 | -93.31802 | 8552 ft | 307 kts | 127° |
| 2026-05-06 00:35 | 44.80053 | -93.29452 | 9401 ft | 309 kts | 130° |
| 2026-05-06 00:35 | 44.78668 | -93.27055 | 10118 ft | 315 kts | 131° |
| 2026-05-06 00:35 | 44.77252 | -93.24653 | 10676 ft | 328 kts | 131° |
| 2026-05-06 00:35 | 44.75734 | -93.22112 | 11034 ft | 348 kts | 131° |
| 2026-05-06 00:36 | 44.74126 | -93.19434 | 11402 ft | 366 kts | 131° |
| 2026-05-06 00:36 | 44.72471 | -93.16687 | 12119 ft | 371 kts | 131° |
| 2026-05-06 00:36 | 44.70808 | -93.13932 | 12940 ft | 373 kts | 131° |
| 2026-05-06 00:36 | 44.69110 | -93.11125 | 13619 ft | 378 kts | 131° |
| 2026-05-06 00:37 | 44.67413 | -93.08323 | 14362 ft | 381 kts | 132° |
| 2026-05-06 00:37 | 44.65688 | -93.05478 | 15047 ft | 385 kts | 132° |
| 2026-05-06 00:37 | 44.63911 | -93.02551 | 15597 ft | 392 kts | 133° |
| 2026-05-06 00:37 | 44.62145 | -92.99644 | 16237 ft | 396 kts | 133° |
| 2026-05-06 00:38 | 44.60354 | -92.96701 | 16874 ft | 399 kts | 133° |
| 2026-05-06 00:38 | 44.58533 | -92.93713 | 17383 ft | 406 kts | 134° |
| 2026-05-06 00:38 | 44.56672 | -92.90659 | 17962 ft | 409 kts | 134° |
| 2026-05-06 00:38 | 44.54830 | -92.87643 | 18541 ft | 412 kts | 135° |
| 2026-05-06 00:39 | 44.52932 | -92.84538 | 18881 ft | 420 kts | 135° |
| 2026-05-06 00:39 | 44.51032 | -92.81432 | 19422 ft | 423 kts | 135° |
| 2026-05-06 00:39 | 44.49111 | -92.78294 | 19843 ft | 428 kts | 136° |
| 2026-05-06 00:39 | 44.47155 | -92.75103 | 20245 ft | 432 kts | 136° |
| 2026-05-06 00:40 | 44.45272 | -92.71777 | 20713 ft | 440 kts | 128° |
| 2026-05-06 00:40 | 44.43654 | -92.68053 | 21034 ft | 448 kts | 126° |
| 2026-05-06 00:40 | 44.42050 | -92.64314 | 21457 ft | 452 kts | 126° |
| 2026-05-06 00:40 | 44.40414 | -92.60495 | 21780 ft | 457 kts | 127° |
| 2026-05-06 00:41 | 44.38778 | -92.56685 | 22164 ft | 462 kts | 127° |
| 2026-05-06 00:41 | 44.37129 | -92.52835 | 22606 ft | 464 kts | 128° |
| 2026-05-06 00:41 | 44.35433 | -92.48888 | 22927 ft | 470 kts | 128° |
| 2026-05-06 00:41 | 44.33768 | -92.45016 | 23382 ft | 471 kts | 128° |
| 2026-05-06 00:42 | 44.32050 | -92.41026 | 23749 ft | 476 kts | 128° |
| 2026-05-06 00:42 | 44.30333 | -92.37046 | 24209 ft | 479 kts | 128° |
| 2026-05-06 00:42 | 44.28588 | -92.33003 | 24668 ft | 482 kts | 129° |
| 2026-05-06 00:42 | 44.26822 | -92.28919 | 25054 ft | 487 kts | 130° |
| 2026-05-06 00:43 | 44.25085 | -92.24906 | 25553 ft | 488 kts | 129° |
| 2026-05-06 00:43 | 44.23301 | -92.20797 | 25818 ft | 496 kts | 129° |
| 2026-05-06 00:43 | 44.21508 | -92.16660 | 26424 ft | 494 kts | 130° |
| 2026-05-06 00:43 | 44.19707 | -92.12524 | 26616 ft | 503 kts | 129° |
| 2026-05-06 00:44 | 44.17915 | -92.08401 | 27153 ft | 503 kts | 129° |
| 2026-05-06 00:44 | 44.16065 | -92.04162 | 27409 ft | 509 kts | 129° |
| 2026-05-06 00:44 | 44.14221 | -91.99935 | 27938 ft | 508 kts | 130° |
| 2026-05-06 00:44 | 44.12394 | -91.95764 | 28165 ft | 515 kts | 129° |
| 2026-05-06 00:45 | 44.10516 | -91.91473 | 28638 ft | 515 kts | 129° |
| 2026-05-06 00:45 | 44.08622 | -91.87151 | 28941 ft | 520 kts | 129° |
| 2026-05-06 00:45 | 44.06739 | -91.82872 | 29276 ft | 523 kts | 129° |
| 2026-05-06 00:45 | 44.04833 | -91.78534 | 29680 ft | 525 kts | 129° |
| 2026-05-06 00:46 | 44.02897 | -91.74145 | 29941 ft | 530 kts | 130° |
| 2026-05-06 00:46 | 44.00985 | -91.69809 | 30337 ft | 531 kts | 129° |
| 2026-05-06 00:46 | 43.99030 | -91.65381 | 30741 ft | 531 kts | 130° |
| 2026-05-06 00:46 | 43.97099 | -91.61022 | 30898 ft | 537 kts | 129° |
| 2026-05-06 00:47 | 43.95128 | -91.56576 | 31219 ft | 538 kts | 129° |
| 2026-05-06 00:47 | 43.93167 | -91.52151 | 31633 ft | 537 kts | 130° |
| 2026-05-06 00:47 | 43.91119 | -91.47811 | 31880 ft | 533 kts | 136° |
| 2026-05-06 00:47 | 43.88675 | -91.43865 | 32291 ft | 518 kts | 144° |
| 2026-05-06 00:48 | 43.86121 | -91.40194 | 32595 ft | 518 kts | 144° |
| 2026-05-06 00:48 | 43.83598 | -91.36594 | 32756 ft | 520 kts | 144° |
| 2026-05-06 00:48 | 43.81037 | -91.32963 | 32902 ft | 516 kts | 145° |
| 2026-05-06 00:49 | 43.75921 | -91.25768 | 32908 ft | 515 kts | 145° |
| 2026-05-06 00:49 | 43.70814 | -91.18627 | 32902 ft | 516 kts | 145° |
| 2026-05-06 00:50 | 43.65739 | -91.11553 | 32905 ft | 516 kts | 145° |
| 2026-05-06 00:50 | 43.60685 | -91.04524 | 32891 ft | 517 kts | 146° |
| 2026-05-06 00:51 | 43.55766 | -90.97704 | 32878 ft | 512 kts | 145° |
| 2026-05-06 00:51 | 43.50735 | -90.90749 | 32887 ft | 515 kts | 146° |
| 2026-05-06 00:52 | 43.45660 | -90.83750 | 32862 ft | 516 kts | 146° |
| 2026-05-06 00:52 | 43.40560 | -90.76729 | 32852 ft | 515 kts | 145° |
| 2026-05-06 00:53 | 43.35490 | -90.69770 | 32903 ft | 515 kts | 146° |
| 2026-05-06 00:53 | 43.30388 | -90.62788 | 32895 ft | 516 kts | 145° |
| 2026-05-06 00:54 | 43.25271 | -90.55800 | 32906 ft | 517 kts | 146° |
| 2026-05-06 00:54 | 43.20170 | -90.48847 | 32910 ft | 516 kts | 146° |
| 2026-05-06 00:55 | 43.15074 | -90.41922 | 32917 ft | 514 kts | 146° |
| 2026-05-06 00:55 | 43.09961 | -90.34997 | 32911 ft | 517 kts | 145° |
| 2026-05-06 00:56 | 43.04778 | -90.27985 | 32894 ft | 514 kts | 146° |
| 2026-05-06 00:56 | 42.99693 | -90.21124 | 32880 ft | 513 kts | 146° |
| 2026-05-06 00:57 | 42.94630 | -90.14316 | 32885 ft | 514 kts | 146° |
| 2026-05-06 00:57 | 42.89502 | -90.07433 | 32889 ft | 515 kts | 146° |
| 2026-05-06 00:58 | 42.84317 | -90.00491 | 32888 ft | 516 kts | 146° |
| 2026-05-06 00:58 | 42.79153 | -89.93595 | 32883 ft | 517 kts | 146° |
| 2026-05-06 00:59 | 42.73999 | -89.86758 | 32899 ft | 515 kts | 147° |
| 2026-05-06 00:59 | 42.68857 | -89.79954 | 32893 ft | 513 kts | 147° |
| 2026-05-06 01:00 | 42.63701 | -89.73155 | 32897 ft | 517 kts | 147° |
| 2026-05-06 01:00 | 42.58491 | -89.66297 | 32903 ft | 519 kts | 147° |
| 2026-05-06 01:01 | 42.53316 | -89.59499 | 32905 ft | 519 kts | 147° |
| 2026-05-06 01:01 | 42.48082 | -89.52644 | 32903 ft | 520 kts | 147° |
| 2026-05-06 01:02 | 42.42836 | -89.45789 | 32903 ft | 521 kts | 147° |
| 2026-05-06 01:02 | 42.37628 | -89.38997 | 32906 ft | 520 kts | 147° |
| 2026-05-06 01:03 | 42.32431 | -89.32238 | 32886 ft | 518 kts | 147° |
| 2026-05-06 01:03 | 42.27188 | -89.25401 | 32880 ft | 523 kts | 147° |
| 2026-05-06 01:04 | 42.21997 | -89.18625 | 32881 ft | 516 kts | 147° |
| 2026-05-06 01:04 | 42.16759 | -89.11825 | 32890 ft | 525 kts | 147° |
| 2026-05-06 01:05 | 42.11505 | -89.05002 | 32882 ft | 522 kts | 147° |
| 2026-05-06 01:05 | 42.06249 | -88.98197 | 32878 ft | 520 kts | 147° |
| 2026-05-06 01:06 | 42.00980 | -88.91400 | 32892 ft | 524 kts | 147° |
| 2026-05-06 01:06 | 41.95689 | -88.84583 | 32899 ft | 523 kts | 148° |
| 2026-05-06 01:07 | 41.90401 | -88.77788 | 32896 ft | 523 kts | 148° |
| 2026-05-06 01:07 | 41.85093 | -88.70983 | 32898 ft | 520 kts | 147° |
| 2026-05-06 01:08 | 41.79820 | -88.64245 | 32896 ft | 524 kts | 147° |
| 2026-05-06 01:08 | 41.74533 | -88.57500 | 32900 ft | 524 kts | 147° |
| 2026-05-06 01:09 | 41.69217 | -88.50732 | 32899 ft | 522 kts | 147° |
| 2026-05-06 01:09 | 41.63885 | -88.43970 | 32901 ft | 528 kts | 147° |
| 2026-05-06 01:10 | 41.58593 | -88.37260 | 32902 ft | 523 kts | 147° |
| 2026-05-06 01:10 | 41.53253 | -88.30502 | 32884 ft | 524 kts | 147° |
| 2026-05-06 01:11 | 41.48869 | -88.24854 | 32889 ft | 526 kts | 147° |
| 2026-05-06 01:11 | 41.42709 | -88.16923 | 32888 ft | 526 kts | 146° |
| 2026-05-06 01:12 | 41.37462 | -88.09982 | 32894 ft | 529 kts | 146° |
| 2026-05-06 01:12 | 41.32217 | -88.03198 | 32895 ft | 523 kts | 147° |
| 2026-05-06 01:13 | 41.26901 | -87.96404 | 32904 ft | 529 kts | 147° |
| 2026-05-06 01:13 | 41.21540 | -87.89575 | 32899 ft | 529 kts | 146° |
| 2026-05-06 01:14 | 41.13549 | -87.79436 | 32902 ft | 527 kts | 147° |
| 2026-05-06 01:14 | 41.08215 | -87.72694 | 32892 ft | 527 kts | 146° |
| 2026-05-06 01:15 | 41.02842 | -87.65919 | 32887 ft | 531 kts | 146° |
| 2026-05-06 01:15 | 40.97450 | -87.59132 | 32886 ft | 531 kts | 146° |
| 2026-05-06 01:16 | 40.92037 | -87.52336 | 32884 ft | 532 kts | 146° |
| 2026-05-06 01:16 | 40.86654 | -87.45590 | 32886 ft | 529 kts | 146° |
| 2026-05-06 01:17 | 40.81286 | -87.38888 | 32893 ft | 532 kts | 146° |
| 2026-05-06 01:17 | 40.75843 | -87.32101 | 32868 ft | 532 kts | 147° |
| 2026-05-06 01:18 | 40.70444 | -87.25386 | 32878 ft | 530 kts | 147° |
| 2026-05-06 01:18 | 40.65041 | -87.18684 | 32869 ft | 531 kts | 146° |
| 2026-05-06 01:19 | 40.59626 | -87.11981 | 32878 ft | 533 kts | 146° |
| 2026-05-06 01:19 | 40.53873 | -87.06216 | 32889 ft | 507 kts | 163° |
| 2026-05-06 01:20 | 40.47570 | -87.01995 | 32877 ft | 507 kts | 165° |
| 2026-05-06 01:20 | 40.41259 | -86.97932 | 32879 ft | 503 kts | 166° |
| 2026-05-06 01:21 | 40.34898 | -86.93903 | 32880 ft | 504 kts | 166° |
| 2026-05-06 01:21 | 40.28558 | -86.89915 | 32881 ft | 506 kts | 166° |
| 2026-05-06 01:22 | 40.22175 | -86.85909 | 32880 ft | 505 kts | 166° |
| 2026-05-06 01:22 | 40.15808 | -86.81930 | 32886 ft | 507 kts | 166° |
| 2026-05-06 01:23 | 40.09364 | -86.77910 | 32886 ft | 509 kts | 165° |
| 2026-05-06 01:23 | 40.02943 | -86.73910 | 32888 ft | 506 kts | 165° |
| 2026-05-06 01:24 | 39.96576 | -86.69958 | 32881 ft | 510 kts | 165° |
| 2026-05-06 01:24 | 39.90130 | -86.65961 | 32880 ft | 508 kts | 165° |
| 2026-05-06 01:25 | 39.83683 | -86.61973 | 32875 ft | 508 kts | 165° |
| 2026-05-06 01:25 | 39.77213 | -86.57978 | 32868 ft | 507 kts | 165° |
| 2026-05-06 01:26 | 39.70790 | -86.54024 | 32870 ft | 509 kts | 165° |
| 2026-05-06 01:26 | 39.64343 | -86.50059 | 32862 ft | 507 kts | 165° |
| 2026-05-06 01:27 | 39.57920 | -86.46121 | 32862 ft | 509 kts | 165° |
| 2026-05-06 01:27 | 39.51511 | -86.42194 | 32857 ft | 506 kts | 165° |
| 2026-05-06 01:28 | 39.45151 | -86.38309 | 32854 ft | 506 kts | 165° |
| 2026-05-06 01:28 | 39.38690 | -86.34373 | 32843 ft | 508 kts | 166° |
| 2026-05-06 01:29 | 39.32266 | -86.30463 | 32829 ft | 507 kts | 166° |
| 2026-05-06 01:29 | 39.25863 | -86.26576 | 32835 ft | 508 kts | 166° |
| 2026-05-06 01:30 | 39.19430 | -86.22677 | 32829 ft | 506 kts | 166° |
| 2026-05-06 01:30 | 39.13014 | -86.18797 | 32831 ft | 507 kts | 166° |
| 2026-05-06 01:31 | 39.06585 | -86.14916 | 32825 ft | 506 kts | 166° |
| 2026-05-06 01:31 | 39.00185 | -86.11064 | 32822 ft | 509 kts | 165° |
| 2026-05-06 01:32 | 38.93726 | -86.07180 | 32819 ft | 508 kts | 165° |
| 2026-05-06 01:32 | 38.87260 | -86.03300 | 32820 ft | 506 kts | 165° |
| 2026-05-06 01:33 | 38.80834 | -85.99455 | 32819 ft | 509 kts | 165° |
| 2026-05-06 01:33 | 38.74396 | -85.95607 | 32825 ft | 508 kts | 165° |
| 2026-05-06 01:34 | 38.68134 | -85.91871 | 32826 ft | 506 kts | 165° |
| 2026-05-06 01:34 | 38.61699 | -85.88040 | 32819 ft | 509 kts | 165° |
| 2026-05-06 01:35 | 38.55244 | -85.84203 | 32825 ft | 506 kts | 165° |
| 2026-05-06 01:35 | 38.48841 | -85.80411 | 32835 ft | 509 kts | 165° |
| 2026-05-06 01:36 | 38.42364 | -85.76575 | 32827 ft | 505 kts | 165° |
| 2026-05-06 01:36 | 38.35966 | -85.72800 | 32834 ft | 507 kts | 165° |
| 2026-05-06 01:37 | 38.29472 | -85.68974 | 32832 ft | 510 kts | 165° |
| 2026-05-06 01:37 | 38.22984 | -85.65157 | 32828 ft | 508 kts | 165° |
| 2026-05-06 01:38 | 38.16507 | -85.61356 | 32836 ft | 509 kts | 164° |
| 2026-05-06 01:38 | 38.10059 | -85.57748 | 32839 ft | 499 kts | 172° |
| 2026-05-06 01:39 | 38.03344 | -85.55678 | 32834 ft | 489 kts | 178° |
| 2026-05-06 01:39 | 37.96661 | -85.53851 | 32842 ft | 491 kts | 178° |
| 2026-05-06 01:40 | 37.89986 | -85.52042 | 32836 ft | 488 kts | 178° |
| 2026-05-06 01:40 | 37.83170 | -85.50208 | 32836 ft | 490 kts | 178° |
| 2026-05-06 01:41 | 37.76440 | -85.48401 | 32842 ft | 493 kts | 178° |
| 2026-05-06 01:41 | 37.69684 | -85.46587 | 32846 ft | 490 kts | 178° |
| 2026-05-06 01:42 | 37.62970 | -85.44794 | 32858 ft | 493 kts | 178° |
| 2026-05-06 01:42 | 37.56253 | -85.42999 | 32866 ft | 492 kts | 178° |
| 2026-05-06 01:43 | 37.49504 | -85.41202 | 32876 ft | 493 kts | 178° |
| 2026-05-06 01:43 | 37.42825 | -85.39423 | 32879 ft | 491 kts | 178° |
| 2026-05-06 01:44 | 37.36071 | -85.37633 | 32890 ft | 495 kts | 178° |
| 2026-05-06 01:44 | 37.29304 | -85.35836 | 32887 ft | 491 kts | 178° |
| 2026-05-06 01:45 | 37.22530 | -85.34046 | 32852 ft | 494 kts | 179° |
| 2026-05-06 01:45 | 37.15762 | -85.32259 | 32859 ft | 493 kts | 179° |
| 2026-05-06 01:46 | 37.09019 | -85.30483 | 32858 ft | 496 kts | 179° |
| 2026-05-06 01:46 | 37.02205 | -85.28689 | 32863 ft | 496 kts | 178° |
| 2026-05-06 01:47 | 36.95456 | -85.26915 | 32856 ft | 495 kts | 178° |
| 2026-05-06 01:47 | 36.88627 | -85.25127 | 32880 ft | 498 kts | 179° |
| 2026-05-06 01:48 | 36.81800 | -85.23339 | 32873 ft | 495 kts | 179° |
| 2026-05-06 01:48 | 36.74980 | -85.21558 | 32886 ft | 496 kts | 178° |
| 2026-05-06 01:49 | 36.68137 | -85.19777 | 32891 ft | 503 kts | 178° |
| 2026-05-06 01:49 | 36.61093 | -85.17941 | 32896 ft | 499 kts | 179° |
| 2026-05-06 01:50 | 36.54251 | -85.16166 | 32906 ft | 503 kts | 179° |
| 2026-05-06 01:50 | 36.47420 | -85.14392 | 32898 ft | 499 kts | 179° |
| 2026-05-06 01:51 | 36.40523 | -85.12611 | 32912 ft | 504 kts | 178° |
| 2026-05-06 01:51 | 36.33619 | -85.10825 | 32923 ft | 502 kts | 179° |
| 2026-05-06 01:52 | 36.26734 | -85.09049 | 32921 ft | 500 kts | 179° |
| 2026-05-06 01:52 | 36.19869 | -85.07285 | 32938 ft | 504 kts | 178° |
| 2026-05-06 01:53 | 36.12936 | -85.05504 | 32940 ft | 506 kts | 178° |
| 2026-05-06 01:53 | 36.06027 | -85.03732 | 32945 ft | 505 kts | 178° |
| 2026-05-06 01:54 | 35.99094 | -85.01959 | 32950 ft | 509 kts | 179° |
| 2026-05-06 01:54 | 35.92138 | -85.00178 | 32962 ft | 508 kts | 178° |
| 2026-05-06 01:55 | 35.85135 | -84.98392 | 32947 ft | 505 kts | 178° |
| 2026-05-06 01:55 | 35.78182 | -84.96623 | 32933 ft | 508 kts | 178° |
| 2026-05-06 01:56 | 35.71222 | -84.94853 | 32929 ft | 505 kts | 179° |
| 2026-05-06 01:56 | 35.64263 | -84.93090 | 32939 ft | 509 kts | 178° |
| 2026-05-06 01:57 | 35.57301 | -84.91326 | 32936 ft | 510 kts | 179° |
| 2026-05-06 01:57 | 35.50308 | -84.89555 | 32948 ft | 511 kts | 178° |
| 2026-05-06 01:58 | 35.43341 | -84.87792 | 32929 ft | 510 kts | 178° |
| 2026-05-06 01:58 | 35.36330 | -84.86026 | 32931 ft | 515 kts | 178° |
| 2026-05-06 01:59 | 35.29274 | -84.84244 | 32949 ft | 512 kts | 178° |
| 2026-05-06 01:59 | 35.22198 | -84.82467 | 32951 ft | 516 kts | 178° |
| 2026-05-06 02:00 | 35.15130 | -84.80688 | 32950 ft | 513 kts | 178° |
| 2026-05-06 02:00 | 35.08091 | -84.78925 | 32968 ft | 514 kts | 178° |
| 2026-05-06 02:01 | 35.01036 | -84.77161 | 33113 ft | 515 kts | 178° |
| 2026-05-06 02:01 | 34.97520 | -84.76283 | 33316 ft | 520 kts | 178° |
| 2026-05-06 02:01 | 34.93921 | -84.75386 | 33534 ft | 523 kts | 178° |
| 2026-05-06 02:02 | 34.90314 | -84.74487 | 33825 ft | 525 kts | 178° |
| 2026-05-06 02:02 | 34.86735 | -84.73592 | 34230 ft | 524 kts | 178° |
| 2026-05-06 02:02 | 34.83118 | -84.72691 | 34621 ft | 522 kts | 178° |
| 2026-05-06 02:02 | 34.79550 | -84.71801 | 34976 ft | 520 kts | 179° |
| 2026-05-06 02:03 | 34.72356 | -84.70016 | 34984 ft | 518 kts | 179° |
| 2026-05-06 02:03 | 34.65252 | -84.68250 | 34985 ft | 512 kts | 179° |
| 2026-05-06 02:04 | 34.58134 | -84.66495 | 34984 ft | 518 kts | 178° |
| 2026-05-06 02:04 | 34.51044 | -84.64651 | 34991 ft | 519 kts | 178° |
| 2026-05-06 02:05 | 34.43970 | -84.62799 | 34985 ft | 520 kts | 178° |
| 2026-05-06 02:05 | 34.36857 | -84.60942 | 34997 ft | 518 kts | 178° |
| 2026-05-06 02:06 | 34.29769 | -84.59095 | 35001 ft | 518 kts | 178° |
| 2026-05-06 02:06 | 34.22696 | -84.57256 | 35014 ft | 521 kts | 178° |
| 2026-05-06 02:07 | 34.15565 | -84.55403 | 35002 ft | 519 kts | 178° |
| 2026-05-06 02:07 | 34.08489 | -84.53571 | 35012 ft | 521 kts | 178° |
| 2026-05-06 02:08 | 34.01345 | -84.51749 | 35027 ft | 526 kts | 179° |
| 2026-05-06 02:08 | 33.94163 | -84.50165 | 35023 ft | 523 kts | 179° |
| 2026-05-06 02:09 | 33.86947 | -84.48576 | 35013 ft | 526 kts | 179° |
| 2026-05-06 02:09 | 33.79823 | -84.47002 | 35012 ft | 522 kts | 180° |
| 2026-05-06 02:10 | 33.72615 | -84.45419 | 35017 ft | 526 kts | 179° |
| 2026-05-06 02:10 | 33.65403 | -84.43810 | 35021 ft | 529 kts | 176° |
| 2026-05-06 02:11 | 33.58351 | -84.40711 | 35042 ft | 550 kts | 161° |
| 2026-05-06 02:11 | 33.51509 | -84.36683 | 35028 ft | 549 kts | 161° |
| 2026-05-06 02:12 | 33.44579 | -84.32573 | 35018 ft | 550 kts | 161° |
| 2026-05-06 02:12 | 33.37748 | -84.28511 | 35020 ft | 549 kts | 161° |
| 2026-05-06 02:13 | 33.31732 | -84.24935 | 35021 ft | 549 kts | 161° |
| 2026-05-06 02:13 | 33.24907 | -84.20885 | 35019 ft | 549 kts | 161° |
| 2026-05-06 02:14 | 33.18018 | -84.16803 | 35016 ft | 550 kts | 161° |
| 2026-05-06 02:14 | 33.11140 | -84.12735 | 35024 ft | 551 kts | 161° |
| 2026-05-06 02:15 | 33.04193 | -84.08631 | 35023 ft | 549 kts | 161° |
| 2026-05-06 02:15 | 32.97327 | -84.04586 | 35034 ft | 550 kts | 160° |
| 2026-05-06 02:16 | 32.90411 | -84.00517 | 35026 ft | 552 kts | 161° |
| 2026-05-06 02:16 | 32.83393 | -83.96393 | 35014 ft | 549 kts | 161° |
| 2026-05-06 02:17 | 32.76503 | -83.92355 | 35015 ft | 552 kts | 161° |
| 2026-05-06 02:17 | 32.69503 | -83.88257 | 35005 ft | 552 kts | 160° |
| 2026-05-06 02:18 | 32.62590 | -83.84217 | 35019 ft | 551 kts | 160° |
| 2026-05-06 02:18 | 32.55669 | -83.80179 | 35026 ft | 550 kts | 161° |
| 2026-05-06 02:19 | 32.48727 | -83.76135 | 35029 ft | 547 kts | 160° |
| 2026-05-06 02:19 | 32.41804 | -83.72114 | 35034 ft | 551 kts | 160° |
| 2026-05-06 02:20 | 32.31410 | -83.66083 | 35035 ft | 548 kts | 160° |
| 2026-05-06 02:21 | 32.24482 | -83.62076 | 35043 ft | 551 kts | 160° |
| 2026-05-06 02:21 | 32.17556 | -83.58072 | 35045 ft | 549 kts | 160° |
| 2026-05-06 02:22 | 32.10690 | -83.54111 | 35044 ft | 547 kts | 160° |
| 2026-05-06 02:22 | 32.03766 | -83.50125 | 35051 ft | 549 kts | 160° |
| 2026-05-06 02:23 | 31.96861 | -83.46156 | 35050 ft | 549 kts | 160° |
| 2026-05-06 02:23 | 31.89949 | -83.42188 | 35047 ft | 545 kts | 160° |
| 2026-05-06 02:24 | 31.83057 | -83.38241 | 35048 ft | 550 kts | 160° |
| 2026-05-06 02:24 | 31.76148 | -83.34287 | 35042 ft | 548 kts | 160° |
| 2026-05-06 02:25 | 31.69222 | -83.30332 | 35034 ft | 545 kts | 160° |
| 2026-05-06 02:25 | 31.62326 | -83.26405 | 35044 ft | 547 kts | 160° |
| 2026-05-06 02:26 | 31.55409 | -83.22524 | 35038 ft | 546 kts | 160° |
| 2026-05-06 02:26 | 31.48523 | -83.18669 | 35041 ft | 547 kts | 160° |
| 2026-05-06 02:27 | 31.41858 | -83.14945 | 35044 ft | 547 kts | 160° |
| 2026-05-06 02:27 | 31.34929 | -83.11076 | 35043 ft | 544 kts | 160° |
| 2026-05-06 02:28 | 31.28007 | -83.07220 | 35048 ft | 547 kts | 160° |
| 2026-05-06 02:28 | 31.21113 | -83.03385 | 35050 ft | 546 kts | 160° |
| 2026-05-06 02:29 | 31.14216 | -82.99554 | 35060 ft | 548 kts | 160° |
| 2026-05-06 02:29 | 31.07315 | -82.95726 | 35059 ft | 545 kts | 160° |
| 2026-05-06 02:30 | 31.00391 | -82.91894 | 35066 ft | 546 kts | 160° |
| 2026-05-06 02:30 | 30.93499 | -82.88082 | 35064 ft | 544 kts | 160° |
| 2026-05-06 02:31 | 30.86799 | -82.83673 | 35064 ft | 552 kts | 146° |
| 2026-05-06 02:31 | 30.80668 | -82.78198 | 35054 ft | 554 kts | 145° |
| 2026-05-06 02:32 | 30.74559 | -82.72707 | 35058 ft | 553 kts | 145° |
| 2026-05-06 02:32 | 30.68433 | -82.67194 | 35058 ft | 553 kts | 144° |
| 2026-05-06 02:33 | 30.62304 | -82.61681 | 35060 ft | 553 kts | 144° |
| 2026-05-06 02:33 | 30.60273 | -82.59856 | 35060 ft | 553 kts | 144° |
| 2026-05-06 02:34 | 30.50076 | -82.50706 | 35066 ft | 555 kts | 144° |
| 2026-05-06 02:34 | 30.43919 | -82.45193 | 35063 ft | 553 kts | 144° |
| 2026-05-06 02:35 | 30.37807 | -82.39728 | 35068 ft | 553 kts | 144° |
| 2026-05-06 02:35 | 30.31678 | -82.34260 | 35061 ft | 554 kts | 145° |
| 2026-05-06 02:36 | 30.25570 | -82.28817 | 35052 ft | 551 kts | 146° |
| 2026-05-06 02:36 | 30.18977 | -82.24332 | 35072 ft | 544 kts | 163° |
| 2026-05-06 02:36 | 30.15433 | -82.22958 | 35092 ft | 522 kts | 173° |
| 2026-05-06 02:37 | 30.11914 | -82.22061 | 34987 ft | 508 kts | 176° |
| 2026-05-06 02:37 | 30.08437 | -82.21277 | 34507 ft | 504 kts | 176° |
| 2026-05-06 02:37 | 30.04955 | -82.20535 | 33709 ft | 506 kts | 177° |
| 2026-05-06 02:37 | 30.01463 | -82.19816 | 33058 ft | 505 kts | 177° |
| 2026-05-06 02:38 | 29.97999 | -82.19115 | 32349 ft | 507 kts | 177° |
| 2026-05-06 02:38 | 29.94489 | -82.18414 | 31706 ft | 508 kts | 176° |
| 2026-05-06 02:38 | 29.91004 | -82.17722 | 31000 ft | 510 kts | 176° |
| 2026-05-06 02:38 | 29.87474 | -82.17015 | 30345 ft | 509 kts | 176° |
| 2026-05-06 02:39 | 29.83897 | -82.16301 | 29495 ft | 513 kts | 175° |
| 2026-05-06 02:39 | 29.80388 | -82.15599 | 28829 ft | 512 kts | 175° |
| 2026-05-06 02:39 | 29.76848 | -82.14893 | 28198 ft | 511 kts | 175° |
| 2026-05-06 02:39 | 29.73327 | -82.14191 | 27582 ft | 509 kts | 175° |
| 2026-05-06 02:40 | 29.69826 | -82.13493 | 26956 ft | 507 kts | 175° |
| 2026-05-06 02:40 | 29.66375 | -82.12807 | 26523 ft | 499 kts | 175° |
| 2026-05-06 02:40 | 29.62955 | -82.12124 | 26231 ft | 489 kts | 175° |
| 2026-05-06 02:40 | 29.59638 | -82.11464 | 26045 ft | 477 kts | 175° |
| 2026-05-06 02:41 | 29.56379 | -82.10819 | 25474 ft | 476 kts | 175° |
| 2026-05-06 02:41 | 29.53107 | -82.10171 | 25061 ft | 470 kts | 175° |
| 2026-05-06 02:41 | 29.49871 | -82.09531 | 24495 ft | 468 kts | 175° |
| 2026-05-06 02:41 | 29.46658 | -82.08894 | 24108 ft | 461 kts | 175° |
| 2026-05-06 02:42 | 29.43512 | -82.08273 | 23614 ft | 458 kts | 175° |
| 2026-05-06 02:42 | 29.40363 | -82.07653 | 22796 ft | 464 kts | 174° |
| 2026-05-06 02:42 | 29.37108 | -82.07014 | 21962 ft | 469 kts | 174° |
| 2026-05-06 02:42 | 29.33885 | -82.06376 | 21209 ft | 472 kts | 173° |
| 2026-05-06 02:43 | 29.30702 | -82.05450 | 20553 ft | 473 kts | 163° |
| 2026-05-06 02:43 | 29.27662 | -82.03941 | 20034 ft | 471 kts | 154° |
| 2026-05-06 02:43 | 29.24765 | -82.02183 | 19468 ft | 467 kts | 153° |
| 2026-05-06 02:43 | 29.21945 | -82.00447 | 19014 ft | 461 kts | 152° |
| 2026-05-06 02:44 | 29.19133 | -81.98688 | 18484 ft | 457 kts | 152° |
| 2026-05-06 02:44 | 29.16286 | -81.96904 | 17441 ft | 466 kts | 151° |
| 2026-05-06 02:44 | 29.13420 | -81.95107 | 16480 ft | 470 kts | 152° |
| 2026-05-06 02:44 | 29.10584 | -81.93328 | 15899 ft | 463 kts | 151° |
| 2026-05-06 02:45 | 29.07818 | -81.91493 | 15692 ft | 446 kts | 145° |
| 2026-05-06 02:45 | 29.05429 | -81.89333 | 15496 ft | 431 kts | 137° |
| 2026-05-06 02:45 | 29.03214 | -81.87019 | 14808 ft | 432 kts | 136° |
| 2026-05-06 02:45 | 29.00987 | -81.84669 | 14090 ft | 430 kts | 136° |
| 2026-05-06 02:46 | 28.98826 | -81.82354 | 13784 ft | 417 kts | 134° |
| 2026-05-06 02:46 | 28.96974 | -81.79860 | 13622 ft | 401 kts | 126° |
| 2026-05-06 02:46 | 28.95301 | -81.77425 | 13503 ft | 384 kts | 127° |
| 2026-05-06 02:46 | 28.93699 | -81.75082 | 13409 ft | 361 kts | 126° |
| 2026-05-06 02:47 | 28.92168 | -81.72826 | 13301 ft | 361 kts | 126° |
| 2026-05-06 02:47 | 28.90610 | -81.70524 | 12956 ft | 369 kts | 126° |
| 2026-05-06 02:47 | 28.89022 | -81.68177 | 12625 ft | 362 kts | 126° |
| 2026-05-06 02:47 | 28.87470 | -81.65881 | 12142 ft | 362 kts | 126° |
| 2026-05-06 02:48 | 28.85894 | -81.63549 | 11844 ft | 354 kts | 126° |
| 2026-05-06 02:48 | 28.84394 | -81.61330 | 11589 ft | 353 kts | 126° |
| 2026-05-06 02:48 | 28.82900 | -81.59122 | 11406 ft | 348 kts | 126° |
| 2026-05-06 02:49 | 28.81443 | -81.56969 | 11391 ft | 333 kts | 126° |
| 2026-05-06 02:49 | 28.79988 | -81.54962 | 11215 ft | 324 kts | 135° |
| 2026-05-06 02:49 | 28.78172 | -81.53465 | 10972 ft | 316 kts | 150° |
| 2026-05-06 02:49 | 28.76259 | -81.52284 | 10684 ft | 310 kts | 151° |
| 2026-05-06 02:50 | 28.74351 | -81.51107 | 10391 ft | 315 kts | 151° |
| 2026-05-06 02:50 | 28.72417 | -81.49931 | 10093 ft | 312 kts | 152° |
| 2026-05-06 02:50 | 28.70509 | -81.48777 | 9769 ft | 304 kts | 152° |
| 2026-05-06 02:50 | 28.68630 | -81.47646 | 9380 ft | 304 kts | 152° |
| 2026-05-06 02:51 | 28.66775 | -81.46532 | 9169 ft | 298 kts | 152° |
| 2026-05-06 02:51 | 28.64948 | -81.45437 | 8912 ft | 295 kts | 152° |
| 2026-05-06 02:51 | 28.63260 | -81.44426 | 8648 ft | 293 kts | 152° |
| 2026-05-06 02:51 | 28.61384 | -81.43310 | 8329 ft | 292 kts | 156° |
| 2026-05-06 02:52 | 28.59451 | -81.42703 | 8035 ft | 286 kts | 175° |
| 2026-05-06 02:52 | 28.57502 | -81.42478 | 7984 ft | 273 kts | 176° |
| 2026-05-06 02:52 | 28.55598 | -81.42393 | 7992 ft | 272 kts | 181° |
| 2026-05-06 02:52 | 28.53738 | -81.42381 | 7938 ft | 263 kts | 181° |
| 2026-05-06 02:53 | 28.51901 | -81.42371 | 7679 ft | 262 kts | 181° |
| 2026-05-06 02:53 | 28.50085 | -81.42365 | 7458 ft | 259 kts | 181° |
| 2026-05-06 02:53 | 28.48278 | -81.42362 | 7180 ft | 258 kts | 182° |
| 2026-05-06 02:53 | 28.46492 | -81.42361 | 6967 ft | 255 kts | 181° |
| 2026-05-06 02:54 | 28.44708 | -81.42360 | 6684 ft | 255 kts | 182° |
| 2026-05-06 02:54 | 28.42938 | -81.42360 | 6451 ft | 252 kts | 182° |
| 2026-05-06 02:54 | 28.41166 | -81.42360 | 6189 ft | 251 kts | 182° |
| 2026-05-06 02:54 | 28.39416 | -81.42360 | 5946 ft | 250 kts | 182° |
| 2026-05-06 02:55 | 28.37673 | -81.42361 | 5696 ft | 248 kts | 181° |
| 2026-05-06 02:55 | 28.35936 | -81.42360 | 5459 ft | 246 kts | 181° |
| 2026-05-06 02:55 | 28.34224 | -81.42351 | 5256 ft | 242 kts | 180° |
| 2026-05-06 02:55 | 28.32548 | -81.42323 | 5083 ft | 238 kts | 180° |
| 2026-05-06 02:56 | 28.30895 | -81.42295 | 4814 ft | 238 kts | 179° |
| 2026-05-06 02:56 | 28.29229 | -81.42268 | 4554 ft | 238 kts | 179° |
| 2026-05-06 02:56 | 28.27565 | -81.42241 | 4279 ft | 238 kts | 179° |
| 2026-05-06 02:56 | 28.25906 | -81.42220 | 4029 ft | 237 kts | 179° |
| 2026-05-06 02:57 | 28.24253 | -81.42088 | 3776 ft | 235 kts | 160° |
| 2026-05-06 02:57 | 28.22891 | -81.41134 | 3493 ft | 232 kts | 127° |
| 2026-05-06 02:57 | 28.22229 | -81.39523 | 3273 ft | 226 kts | 96° |
| 2026-05-06 02:57 | 28.22178 | -81.37744 | 3043 ft | 224 kts | 88° |
| 2026-05-06 02:58 | 28.22224 | -81.36028 | 2981 ft | 212 kts | 87° |
| 2026-05-06 02:58 | 28.22563 | -81.34445 | 3020 ft | 203 kts | 56° |
| 2026-05-06 02:58 | 28.23606 | -81.33395 | 3062 ft | 204 kts | 31° |
| 2026-05-06 02:58 | 28.24901 | -81.32669 | 2993 ft | 207 kts | 18° |
| 2026-05-06 02:59 | 28.26312 | -81.32504 | 2999 ft | 196 kts | 1° |
| 2026-05-06 02:59 | 28.27644 | -81.32507 | 2981 ft | 186 kts | 2° |
| 2026-05-06 02:59 | 28.28950 | -81.32515 | 2860 ft | 194 kts | 2° |
| 2026-05-06 02:59 | 28.30344 | -81.32544 | 2586 ft | 200 kts | 1° |
| 2026-05-06 03:00 | 28.31752 | -81.32597 | 2282 ft | 200 kts | 1° |
| 2026-05-06 03:00 | 28.33108 | -81.32628 | 1963 ft | 190 kts | 4° |
| 2026-05-06 03:00 | 28.34381 | -81.32630 | 1761 ft | 169 kts | 5° |
| 2026-05-06 03:00 | 28.35525 | -81.32610 | 1416 ft | 161 kts | 6° |
| 2026-05-06 03:01 | 28.36613 | -81.32615 | 1107 ft | 153 kts | 2° |
| 2026-05-06 03:01 | 28.37682 | -81.32647 | 867 ft | 151 kts | 3° |
| 2026-05-06 03:01 | 28.38731 | -81.32655 | 644 ft | 147 kts | 4° |
| 2026-05-06 03:01 | 28.39756 | -81.32645 | 455 ft | 146 kts | 2° |
| 2026-05-06 03:02 | 28.40807 | -81.32654 | 281 ft | 149 kts | 2° |
| 2026-05-06 03:02 | 28.41836 | -81.32665 | 111 ft | 148 kts | 1° |
| 2026-05-06 03:02 | 28.42789 | -81.32680 | 107 ft | 111 kts | 0° |
| 2026-05-06 03:02 | 28.43390 | -81.32682 | 106 ft | 58 kts | 0° |
| 2026-05-06 03:03 | 28.43600 | -81.32678 | 106 ft | 19 kts | 9° |
| 2026-05-06 03:03 | 28.43713 | -81.32597 | 106 ft | 19 kts | 52° |
| 2026-05-06 03:03 | 28.43756 | -81.32496 | 106 ft | 7 kts | 94° |
| 2026-05-06 03:03 | 28.43707 | -81.32451 | 106 ft | 13 kts | 178° |
| 2026-05-06 03:04 | 28.43594 | -81.32451 | 106 ft | 20 kts | 179° |
| 2026-05-06 03:04 | 28.43438 | -81.32452 | 106 ft | 23 kts | 181° |
| 2026-05-06 03:04 | 28.43276 | -81.32452 | 106 ft | 22 kts | 177° |
| 2026-05-06 03:04 | 28.43121 | -81.32445 | 106 ft | 22 kts | 179° |
| 2026-05-06 03:05 | 28.42967 | -81.32444 | 106 ft | 21 kts | 180° |
| 2026-05-06 03:05 | 28.42821 | -81.32443 | 106 ft | 19 kts | 180° |
| 2026-05-06 03:05 | 28.42702 | -81.32442 | 106 ft | 14 kts | 179° |
| 2026-05-06 03:05 | 28.42615 | -81.32442 | 106 ft | 10 kts | 181° |
| 2026-05-06 03:06 | 28.42548 | -81.32439 | 106 ft | 9 kts | 168° |
| 2026-05-06 03:06 | 28.42502 | -81.32381 | 106 ft | 11 kts | 114° |
| 2026-05-06 03:06 | 28.42462 | -81.32299 | 106 ft | 12 kts | 121° |
| 2026-05-06 03:06 | 28.42412 | -81.32199 | 106 ft | 16 kts | 120° |
| 2026-05-06 03:07 | 28.42354 | -81.32066 | 106 ft | 20 kts | 106° |
| 2026-05-06 03:07 | 28.42346 | -81.31902 | 106 ft | 19 kts | 89° |
| 2026-05-06 03:07 | 28.42347 | -81.31753 | 106 ft | 18 kts | 90° |
| 2026-05-06 03:07 | 28.42347 | -81.31612 | 106 ft | 17 kts | 89° |
| 2026-05-06 03:08 | 28.42350 | -81.31473 | 106 ft | 18 kts | 88° |
| 2026-05-06 03:08 | 28.42351 | -81.31332 | 106 ft | 18 kts | 94° |
| 2026-05-06 03:08 | 28.42341 | -81.31185 | 106 ft | 19 kts | 98° |
| 2026-05-06 03:08 | 28.42318 | -81.31029 | 106 ft | 21 kts | 96° |
| 2026-05-06 03:09 | 28.42324 | -81.30855 | 106 ft | 21 kts | 85° |
| 2026-05-06 03:09 | 28.42333 | -81.30730 | 123 ft | 10 kts | 86° |
| 2026-05-06 03:09 | 28.42338 | -81.30652 | 123 ft | 8 kts | 85° |
| 2026-05-06 03:09 | 28.42343 | -81.30579 | 123 ft | 9 kts | 85° |
| 2026-05-06 03:10 | 28.42351 | -81.30473 | 110 ft | 18 kts | 85° |
| 2026-05-06 03:10 | 28.42357 | -81.30334 | 106 ft | 15 kts | 88° |
| 2026-05-06 03:10 | 28.42359 | -81.30235 | 106 ft | 10 kts | 89° |
| 2026-05-06 03:10 | 28.42363 | -81.30162 | 106 ft | 8 kts | 71° |
| 2026-05-06 03:11 | 28.42409 | -81.30135 | 106 ft | 7 kts | 14° |
| 2026-05-06 03:11 | 28.42431 | -81.30104 | 106 ft | 5 kts | 83° |
| 2026-05-06 03:11 | 28.42433 | -81.30048 | 106 ft | 8 kts | 87° |
| 2026-05-06 03:11 | 28.42449 | -81.29974 | 106 ft | 10 kts | 65° |
| 2026-05-06 03:12 | 28.42500 | -81.29903 | 106 ft | 12 kts | 34° |
| 2026-05-06 03:12 | 28.42594 | -81.29882 | 106 ft | 14 kts | 357° |
| 2026-05-06 03:12 | 28.42686 | -81.29884 | 106 ft | 11 kts | 359° |
| 2026-05-06 03:12 | 28.42747 | -81.29894 | 106 ft | 7 kts | 347° |
| 2026-05-06 03:13 | 28.42796 | -81.29907 | 106 ft | 6 kts | 347° |
| 2026-05-06 03:13 | 28.42820 | -81.29920 | 106 ft | 2 kts | 305° |
| 2026-05-06 03:13 | 28.42828 | -81.29948 | 106 ft | 3 kts | 286° |
| 2026-05-06 03:13 | 28.42834 | -81.29971 | 106 ft | 2 kts | 285° |
| 2026-05-06 03:14 | 28.42836 | -81.29981 | 106 ft | 0 kts | 285° |